Randolph, Missouri
Current Conditions -  °F | °C
As of 7:54 AM on Monday 24 Nov 2014 (Local Time) from KMKC Reporting Station
Broken Clouds Broken Clouds  
Wind Chill: 27°   Ceiling: 4000
Heat Index: 35°   Visibility: 10mi
Dew Point: 23°   Wind: 12mph
Humidity: 61%   Direction: 290°WNW
Pressure: 29.67"   Gusts: 21mph
Location:  39.1628°N, 94.4478°W
Report Text: KMKC 241354Z 29010G18KT 10SM BKN040 02/M05 A2967 RMK AO2 PK WND 28027/1310 SLP051 T00171050
Loading
Personal Weather Stations






























Interactive Weather Map New forecast layout! Learn more

10-Day Weather Forecast

Advertisements
Track Severe Weather on mobile